Time;durP1;ratioP1;P1;durP2;ratioP2;P2;SDS_P1;SDS_P2;PMS_P1;PMS_P2;Temp;Humidity;BMP_temperature;BMP_pressure;BME280_temperature;BME280_humidity;BME280_pressure;Samples;Min_cycle;Max_cycle;Signal;HPM_P1;HPM_P2
2021/10/22 00:01:36;;;;;;;13.13;4.15;;;6.00;99.90;;;;;;4953155;28;20035;-84
2021/10/22 00:04:02;;;;;;;9.20;2.10;;;6.00;99.90;;;;;;4964297;28;20057;-85
2021/10/22 00:06:28;;;;;;;9.32;2.25;;;6.10;99.90;;;;;;4968324;28;20406;-84
2021/10/22 00:08:53;;;;;;;5.53;2.90;;;6.10;99.90;;;;;;4967517;28;20034;-84
2021/10/22 00:11:19;;;;;;;12.10;2.15;;;6.10;99.90;;;;;;4974387;28;20080;-84
2021/10/22 00:13:44;;;;;;;10.85;2.13;;;6.00;99.90;;;;;;4963416;28;20083;-85
2021/10/22 00:16:10;;;;;;;3.88;1.02;;;6.10;99.90;;;;;;4984410;28;20372;-84
2021/10/22 00:18:35;;;;;;;12.18;2.97;;;6.10;99.90;;;;;;5003562;28;20057;-84
2021/10/22 00:21:01;;;;;;;6.82;1.67;;;6.10;99.90;;;;;;4987095;28;20479;-84
2021/10/22 00:23:26;;;;;;;7.15;2.47;;;6.10;99.90;;;;;;4986769;28;20026;-85
2021/10/22 00:25:52;;;;;;;5.97;1.83;;;6.10;99.90;;;;;;5002129;28;20030;-85
2021/10/22 00:28:18;;;;;;;12.20;2.42;;;6.10;99.90;;;;;;4974875;28;20034;-84
2021/10/22 00:30:43;;;;;;;5.40;1.98;;;6.10;99.90;;;;;;5000862;28;20443;-84
2021/10/22 00:33:09;;;;;;;3.25;1.08;;;6.10;99.90;;;;;;4989879;28;20044;-84
2021/10/22 00:35:34;;;;;;;9.25;2.20;;;6.20;99.90;;;;;;4986515;28;20037;-84
2021/10/22 00:38:00;;;;;;;13.57;1.88;;;6.20;99.90;;;;;;5002160;28;20093;-84
2021/10/22 00:40:25;;;;;;;10.30;2.58;;;6.20;99.90;;;;;;5002877;28;20123;-84
2021/10/22 00:42:53;;;;;;;8.10;2.08;;;6.30;99.90;;;;;;5014501;28;20043;-84
2021/10/22 00:45:18;;;;;;;12.45;2.05;;;6.20;99.90;;;;;;4954628;28;20026;-84
2021/10/22 00:47:44;;;;;;;6.45;2.05;;;6.20;99.90;;;;;;4949981;28;20458;-84
2021/10/22 00:50:09;;;;;;;13.75;2.13;;;6.20;99.90;;;;;;4954171;28;20553;-83
2021/10/22 00:52:35;;;;;;;17.30;2.22;;;6.20;99.90;;;;;;4999561;28;20486;-84
2021/10/22 00:55:01;;;;;;;10.43;2.15;;;6.20;99.90;;;;;;4985170;28;20475;-83
2021/10/22 00:57:26;;;;;;;13.05;2.15;;;6.20;99.90;;;;;;4982380;28;20088;-84
2021/10/22 00:59:52;;;;;;;12.65;2.08;;;6.30;99.90;;;;;;5003832;28;20026;-84
2021/10/22 01:02:18;;;;;;;6.78;1.33;;;6.30;99.90;;;;;;4989661;28;20033;-84
2021/10/22 01:04:44;;;;;;;8.02;2.30;;;6.30;99.90;;;;;;4969621;28;20041;-83
2021/10/22 01:07:09;;;;;;;10.35;1.75;;;6.40;99.90;;;;;;4964825;28;20300;-81
2021/10/22 01:09:35;;;;;;;5.07;1.50;;;6.40;99.90;;;;;;4977659;28;20400;-82
2021/10/22 01:12:01;;;;;;;8.93;2.10;;;6.30;99.90;;;;;;5000238;28;20037;-82
2021/10/22 01:14:28;;;;;;;10.00;2.20;;;6.40;99.90;;;;;;4985325;28;20079;-82
2021/10/22 01:16:53;;;;;;;15.77;1.73;;;6.40;99.90;;;;;;4999449;28;20117;-82
2021/10/22 01:19:19;;;;;;;2.55;0.73;;;6.40;99.90;;;;;;4957214;28;20137;-81
2021/10/22 01:21:49;;;;;;;6.57;1.40;;;6.40;99.90;;;;;;4951883;28;20439;-82
2021/10/22 01:24:15;;;;;;;4.05;1.15;;;6.40;99.90;;;;;;4964725;28;20038;-82
2021/10/22 01:26:41;;;;;;;6.88;1.42;;;6.40;99.90;;;;;;5003376;28;20128;-81
2021/10/22 01:29:07;;;;;;;4.60;1.48;;;6.40;99.90;;;;;;4988876;28;20133;-82
2021/10/22 01:31:32;;;;;;;9.02;0.70;;;6.40;99.90;;;;;;5000972;28;20141;-81
2021/10/22 01:33:58;;;;;;;7.35;1.42;;;6.40;99.90;;;;;;4986810;28;20031;-82
2021/10/22 01:36:24;;;;;;;5.88;1.02;;;6.40;99.90;;;;;;4965348;28;20109;-82
2021/10/22 01:38:50;;;;;;;7.15;1.00;;;6.40;99.90;;;;;;4974960;28;20060;-81
2021/10/22 01:41:16;;;;;;;5.63;1.48;;;6.40;99.90;;;;;;4952777;28;20030;-81
2021/10/22 01:43:42;;;;;;;10.15;1.63;;;6.40;99.90;;;;;;4984330;28;20398;-83
2021/10/22 01:46:09;;;;;;;16.38;2.38;;;6.40;99.90;;;;;;4968836;28;20169;-83
2021/10/22 01:48:34;;;;;;;3.10;0.75;;;6.40;99.90;;;;;;4975715;28;20034;-83
2021/10/22 01:51:00;;;;;;;8.45;1.50;;;6.40;99.90;;;;;;4981947;28;20527;-84
2021/10/22 01:53:25;;;;;;;7.50;1.58;;;6.40;99.90;;;;;;5018639;28;20517;-83
2021/10/22 01:55:51;;;;;;;13.25;1.80;;;6.30;99.90;;;;;;4987910;28;20034;-84
2021/10/22 01:58:17;;;;;;;8.70;1.15;;;6.30;99.90;;;;;;4984006;28;20097;-84
2021/10/22 02:00:42;;;;;;;14.45;2.00;;;6.30;99.90;;;;;;4980633;28;20435;-84
2021/10/22 02:03:08;;;;;;;4.55;1.52;;;6.20;99.90;;;;;;4980086;28;20038;-83
2021/10/22 02:05:34;;;;;;;6.78;1.92;;;6.30;99.90;;;;;;5016564;28;20041;-84
2021/10/22 02:07:59;;;;;;;6.75;1.23;;;6.30;99.90;;;;;;4995189;28;20041;-83
2021/10/22 02:10:25;;;;;;;2.38;0.88;;;6.30;99.90;;;;;;4980862;28;20030;-83
2021/10/22 02:12:51;;;;;;;7.57;1.67;;;6.40;99.90;;;;;;5004068;28;20072;-83
2021/10/22 02:15:16;;;;;;;8.15;1.15;;;6.30;99.90;;;;;;5004130;28;20050;-83
2021/10/22 02:17:42;;;;;;;3.67;1.48;;;6.30;99.90;;;;;;4993403;28;22784;-83
2021/10/22 02:20:08;;;;;;;4.13;1.52;;;6.30;99.90;;;;;;4988144;28;20038;-83
2021/10/22 02:22:33;;;;;;;4.18;1.27;;;6.30;99.90;;;;;;4985513;28;20034;-83
2021/10/22 02:24:59;;;;;;;3.33;0.88;;;6.30;99.90;;;;;;4996172;28;20065;-83
2021/10/22 02:27:24;;;;;;;5.95;1.95;;;6.20;99.90;;;;;;4958767;28;20066;-83
2021/10/22 02:29:50;;;;;;;7.82;0.85;;;6.20;99.90;;;;;;4998121;28;20027;-83
2021/10/22 02:32:15;;;;;;;8.18;1.75;;;6.10;99.90;;;;;;4972590;28;20410;-83
2021/10/22 02:34:41;;;;;;;9.52;1.90;;;6.10;99.90;;;;;;4983864;28;20352;-84
2021/10/22 02:37:06;;;;;;;11.50;1.77;;;6.10;99.90;;;;;;4979884;28;20026;-83
2021/10/22 02:39:36;;;;;;;11.60;1.83;;;6.20;99.90;;;;;;4966175;28;20037;-84
2021/10/22 02:42:02;;;;;;;9.75;1.95;;;6.20;99.90;;;;;;4989253;28;20497;-84
2021/10/22 02:44:28;;;;;;;13.23;1.98;;;6.00;99.90;;;;;;4994313;28;20451;-83
2021/10/22 02:46:53;;;;;;;11.00;1.88;;;6.00;99.90;;;;;;4965695;28;20045;-83
2021/10/22 02:49:19;;;;;;;12.63;1.90;;;6.00;99.90;;;;;;4956377;28;20034;-83
2021/10/22 02:51:44;;;;;;;9.32;1.65;;;6.00;99.90;;;;;;4967291;28;20035;-83
2021/10/22 02:54:10;;;;;;;6.20;1.63;;;6.00;99.90;;;;;;4952603;28;20483;-85
2021/10/22 02:56:35;;;;;;;9.77;3.10;;;6.00;99.90;;;;;;4969601;28;20054;-85
2021/10/22 02:59:01;;;;;;;14.52;2.38;;;6.00;99.90;;;;;;4963525;28;20034;-85
2021/10/22 03:01:27;;;;;;;4.68;1.65;;;6.00;99.90;;;;;;4981029;28;20034;-84
2021/10/22 03:03:52;;;;;;;7.05;1.92;;;6.00;99.90;;;;;;4974889;28;20035;-84
2021/10/22 03:06:18;;;;;;;8.18;2.58;;;6.10;99.90;;;;;;4991185;28;20038;-84
2021/10/22 03:08:43;;;;;;;13.77;3.40;;;6.00;99.90;;;;;;4960148;28;20066;-83
2021/10/22 03:11:09;;;;;;;12.43;2.15;;;6.00;99.90;;;;;;5002497;28;20065;-84
2021/10/22 03:13:34;;;;;;;3.53;1.95;;;5.90;99.90;;;;;;4968552;28;20045;-84
2021/10/22 03:16:00;;;;;;;3.13;1.25;;;5.80;99.90;;;;;;5000570;28;20034;-83
2021/10/22 03:18:25;;;;;;;7.10;2.22;;;5.80;99.90;;;;;;4963818;28;20317;-83
2021/10/22 03:20:51;;;;;;;7.07;1.38;;;5.90;99.90;;;;;;4968067;28;20042;-83
2021/10/22 03:23:17;;;;;;;8.20;1.65;;;5.90;99.90;;;;;;4993332;28;20031;-84
2021/10/22 03:25:42;;;;;;;8.18;2.45;;;5.80;99.90;;;;;;5004506;28;20038;-84
2021/10/22 03:28:08;;;;;;;9.63;2.05;;;5.80;99.90;;;;;;4983723;28;20027;-84
2021/10/22 03:30:34;;;;;;;3.33;1.42;;;5.80;99.90;;;;;;4981945;28;20443;-84
2021/10/22 03:33:00;;;;;;;10.90;3.58;;;5.80;99.90;;;;;;5000457;28;20041;-84
2021/10/22 03:35:26;;;;;;;10.18;1.70;;;5.90;99.90;;;;;;5003039;28;20061;-82
2021/10/22 03:37:52;;;;;;;10.45;1.77;;;6.00;99.90;;;;;;4989702;28;20037;-82
2021/10/22 03:40:18;;;;;;;8.02;1.58;;;5.90;99.90;;;;;;4987670;28;20088;-82
2021/10/22 03:42:43;;;;;;;5.93;1.65;;;5.90;99.90;;;;;;5000128;28;20441;-82
2021/10/22 03:45:09;;;;;;;6.15;1.23;;;5.90;99.90;;;;;;4975711;28;20085;-82
2021/10/22 03:47:34;;;;;;;10.50;1.95;;;5.80;99.90;;;;;;4998113;28;20487;-82
2021/10/22 03:50:00;;;;;;;9.45;2.58;;;5.80;99.90;;;;;;4985860;28;20031;-82
2021/10/22 03:52:26;;;;;;;4.53;2.25;;;5.80;99.90;;;;;;4980941;28;20031;-82
2021/10/22 03:54:52;;;;;;;11.80;2.60;;;5.80;99.90;;;;;;4985761;28;20537;-83
2021/10/22 03:57:17;;;;;;;6.93;1.75;;;5.80;99.90;;;;;;4969516;28;20232;-82
2021/10/22 03:59:43;;;;;;;5.10;1.05;;;5.70;99.90;;;;;;4968029;28;20027;-81
2021/10/22 04:02:08;;;;;;;9.88;2.35;;;5.70;99.90;;;;;;4952892;28;20030;-83
2021/10/22 04:04:34;;;;;;;5.70;1.95;;;5.80;99.90;;;;;;4966153;28;20066;-84
2021/10/22 04:07:02;;;;;;;8.45;1.88;;;5.70;99.90;;;;;;4997493;28;20053;-82
2021/10/22 04:09:31;;;;;;;7.68;1.90;;;5.70;99.90;;;;;;5004354;28;20053;-82
2021/10/22 04:11:58;;;;;;;6.82;1.67;;;5.70;99.90;;;;;;4999215;28;20043;-82
2021/10/22 04:14:23;;;;;;;5.85;1.48;;;5.80;99.90;;;;;;4969773;28;20032;-82
2021/10/22 04:16:49;;;;;;;6.13;1.65;;;5.60;99.90;;;;;;4965157;28;20038;-82
2021/10/22 04:19:14;;;;;;;11.60;2.22;;;5.60;99.90;;;;;;4962331;28;20283;-82
2021/10/22 04:21:40;;;;;;;4.13;1.25;;;5.50;99.90;;;;;;4973164;28;20034;-82
2021/10/22 04:24:06;;;;;;;6.65;1.48;;;5.70;99.90;;;;;;5005336;28;20259;-82
2021/10/22 04:26:31;;;;;;;7.57;2.13;;;5.60;99.90;;;;;;5004054;28;20185;-83
2021/10/22 04:29:05;;;;;;;8.75;1.85;;;5.60;99.90;;;;;;4987452;28;20041;-82
2021/10/22 04:31:30;;;;;;;7.68;1.35;;;5.60;99.90;;;;;;4987408;28;20030;-83
2021/10/22 04:33:56;;;;;;;5.43;1.15;;;5.60;99.90;;;;;;5004491;28;20036;-82
2021/10/22 04:36:22;;;;;;;5.22;1.48;;;5.60;99.90;;;;;;5001879;28;20443;-83
2021/10/22 04:41:32;;;;;;;4.18;1.65;;;5.60;99.90;;;;;;4999801;28;20084;-83
2021/10/22 04:43:57;;;;;;;7.90;2.40;;;5.60;99.90;;;;;;5003966;28;20537;-82
2021/10/22 04:46:23;;;;;;;4.65;1.05;;;5.60;99.90;;;;;;4988948;28;20483;-83
2021/10/22 04:48:48;;;;;;;11.57;1.77;;;5.60;99.90;;;;;;4954710;28;20105;-83
2021/10/22 04:51:14;;;;;;;12.18;2.22;;;5.60;99.90;;;;;;4966639;28;20129;-82
2021/10/22 04:53:40;;;;;;;6.78;1.33;;;5.50;99.90;;;;;;4982225;28;20034;-82
2021/10/22 04:56:05;;;;;;;4.57;1.23;;;5.40;99.90;;;;;;4969626;28;20237;-82
2021/10/22 04:58:31;;;;;;;4.28;1.35;;;5.40;99.90;;;;;;4979933;28;20031;-82
2021/10/22 05:00:57;;;;;;;6.97;1.90;;;5.50;99.90;;;;;;4978852;28;20038;-82
2021/10/22 05:03:22;;;;;;;8.05;1.42;;;5.40;99.90;;;;;;4963914;28;20031;-82
2021/10/22 05:05:48;;;;;;;7.70;1.55;;;5.40;99.90;;;;;;4966515;28;20438;-83
2021/10/22 05:08:14;;;;;;;10.73;1.98;;;5.50;99.90;;;;;;4967808;28;20065;-82
2021/10/22 05:10:40;;;;;;;6.57;1.20;;;5.50;99.90;;;;;;4952917;28;20064;-82
2021/10/22 05:13:06;;;;;;;8.45;1.60;;;5.50;99.90;;;;;;4955910;28;20038;-82
2021/10/22 05:15:31;;;;;;;9.68;2.63;;;5.60;99.90;;;;;;4982303;28;20026;-82
2021/10/22 05:17:57;;;;;;;10.07;2.53;;;5.70;99.90;;;;;;4980488;28;20506;-81
2021/10/22 05:20:22;;;;;;;3.47;2.30;;;5.70;99.90;;;;;;4978025;28;20046;-82
2021/10/22 05:22:48;;;;;;;5.25;1.23;;;5.60;99.90;;;;;;4979309;28;20030;-82
2021/10/22 05:25:15;;;;;;;14.52;2.50;;;5.70;99.90;;;;;;4967541;28;20027;-81
2021/10/22 05:27:40;;;;;;;9.73;1.70;;;5.70;99.90;;;;;;4953644;28;20022;-82
2021/10/22 05:30:06;;;;;;;8.75;1.83;;;5.70;99.90;;;;;;4994677;28;20469;-82
2021/10/22 05:32:32;;;;;;;6.15;1.40;;;5.70;99.90;;;;;;4977148;28;20023;-82
2021/10/22 05:34:57;;;;;;;6.75;1.60;;;5.70;99.90;;;;;;4975519;28;20030;-81
2021/10/22 05:37:23;;;;;;;11.05;1.73;;;5.60;99.90;;;;;;4951898;28;20018;-81
2021/10/22 05:39:49;;;;;;;11.60;2.22;;;5.80;99.90;;;;;;4950652;28;20121;-82
2021/10/22 05:42:15;;;;;;;8.45;1.08;;;5.80;99.90;;;;;;4982705;28;20471;-82
2021/10/22 05:44:41;;;;;;;11.77;2.20;;;5.80;99.90;;;;;;4950125;28;20038;-82
2021/10/22 05:47:06;;;;;;;8.13;1.77;;;5.80;99.90;;;;;;4966821;28;20047;-81
2021/10/22 05:49:32;;;;;;;7.85;2.10;;;5.80;99.90;;;;;;4979980;28;20386;-83
2021/10/22 05:51:57;;;;;;;10.63;2.08;;;5.80;99.90;;;;;;4982797;28;20445;-82
2021/10/22 05:54:23;;;;;;;3.55;1.08;;;5.80;99.90;;;;;;4955922;28;20035;-84
2021/10/22 05:56:49;;;;;;;9.68;2.42;;;5.80;99.90;;;;;;4965933;28;20437;-82
2021/10/22 05:59:15;;;;;;;12.20;1.23;;;5.70;99.90;;;;;;4987596;28;20034;-82
2021/10/22 06:01:40;;;;;;;7.72;1.27;;;5.80;99.90;;;;;;4961186;28;20053;-82
2021/10/22 06:04:06;;;;;;;7.82;1.75;;;5.70;99.90;;;;;;4953136;28;20533;-81
2021/10/22 06:06:31;;;;;;;8.68;2.67;;;5.70;99.90;;;;;;4995868;28;20521;-81
2021/10/22 06:08:59;;;;;;;9.35;1.88;;;5.70;99.90;;;;;;4996281;28;20026;-82
2021/10/22 06:11:24;;;;;;;9.18;2.15;;;5.80;99.90;;;;;;4985152;28;20034;-81
2021/10/22 06:13:50;;;;;;;4.75;1.55;;;5.80;99.90;;;;;;4976934;28;20195;-82
2021/10/22 06:16:15;;;;;;;6.15;1.65;;;5.80;99.90;;;;;;4988007;28;20093;-82
2021/10/22 06:18:51;;;;;;;4.63;1.17;;;5.80;99.90;;;;;;4972002;28;20027;-81
2021/10/22 06:21:33;;;;;;;8.70;1.65;;;5.70;99.90;;;;;;4966705;28;20038;-81
2021/10/22 06:24:02;;;;;;;13.65;3.00;;;5.70;99.90;;;;;;4954780;28;20034;-81
2021/10/22 06:26:31;;;;;;;12.65;2.25;;;5.70;99.90;;;;;;4978243;28;20357;-81
2021/10/22 06:28:57;;;;;;;7.97;1.08;;;5.70;99.90;;;;;;4969742;28;20085;-81
2021/10/22 06:31:23;;;;;;;7.53;1.92;;;5.70;99.90;;;;;;4996555;28;20042;-81
2021/10/22 06:33:48;;;;;;;8.65;1.65;;;5.80;99.90;;;;;;5000244;28;20030;-81
2021/10/22 06:36:14;;;;;;;11.65;1.85;;;5.80;99.90;;;;;;4991436;28;20092;-81
2021/10/22 06:38:39;;;;;;;4.88;1.35;;;5.80;99.90;;;;;;5019891;28;20482;-81
2021/10/22 06:41:08;;;;;;;8.43;2.00;;;5.80;99.90;;;;;;4988838;28;20398;-81
2021/10/22 06:43:34;;;;;;;9.95;1.98;;;5.80;99.90;;;;;;4986001;28;20500;-81
2021/10/22 06:45:59;;;;;;;7.80;1.92;;;5.80;99.90;;;;;;5007529;28;20116;-81
2021/10/22 06:48:25;;;;;;;8.18;2.42;;;5.90;99.90;;;;;;4968798;28;20058;-83
2021/10/22 06:50:51;;;;;;;10.60;2.03;;;6.00;99.90;;;;;;5021447;28;20305;-81
2021/10/22 06:53:17;;;;;;;6.20;1.20;;;6.00;99.90;;;;;;4990510;28;20105;-81
2021/10/22 06:55:42;;;;;;;5.57;1.23;;;6.10;99.90;;;;;;4988385;28;20026;-81
2021/10/22 06:58:08;;;;;;;4.72;1.00;;;6.20;99.90;;;;;;4989629;28;20026;-81
2021/10/22 07:00:35;;;;;;;5.38;1.52;;;6.20;99.90;;;;;;4988712;28;20449;-81
2021/10/22 07:03:02;;;;;;;5.90;1.17;;;6.30;99.90;;;;;;4991514;28;20060;-81
2021/10/22 07:08:08;;;;;;;5.25;1.35;;;6.30;99.90;;;;;;5002299;28;20581;-82
2021/10/22 07:10:35;;;;;;;5.30;1.55;;;6.40;99.90;;;;;;5007003;28;20099;-81
2021/10/22 07:13:03;;;;;;;3.90;0.80;;;6.40;99.90;;;;;;5007160;28;20026;-82
2021/10/22 07:15:30;;;;;;;5.97;1.30;;;6.40;99.90;;;;;;4953783;28;20057;-82
2021/10/22 07:17:57;;;;;;;9.80;1.83;;;6.40;99.90;;;;;;4969511;28;20208;-82
2021/10/22 07:20:23;;;;;;;8.18;1.13;;;6.50;99.90;;;;;;4988032;28;21332;-82
2021/10/22 07:25:15;;;;;;;5.97;2.10;;;6.50;99.90;;;;;;4984823;28;20556;-81
2021/10/22 07:27:40;;;;;;;8.38;1.95;;;6.50;99.90;;;;;;4985820;28;20035;-81
2021/10/22 07:30:06;;;;;;;8.85;2.85;;;6.50;99.90;;;;;;4967151;28;20040;-81
2021/10/22 07:32:32;;;;;;;5.97;1.48;;;6.60;99.90;;;;;;4969364;28;20045;-81
2021/10/22 07:34:58;;;;;;;7.80;2.80;;;6.60;99.90;;;;;;4966941;28;20042;-81
2021/10/22 07:37:23;;;;;;;7.47;1.67;;;6.70;99.90;;;;;;4952800;28;20034;-81
2021/10/22 07:39:49;;;;;;;6.90;1.50;;;6.70;99.90;;;;;;4962668;28;20031;-81
2021/10/22 07:42:14;;;;;;;6.43;1.52;;;6.70;99.90;;;;;;4971186;28;20055;-81
2021/10/22 07:44:40;;;;;;;7.22;1.73;;;6.60;99.90;;;;;;4951406;28;20038;-81
2021/10/22 07:47:06;;;;;;;14.13;2.38;;;6.70;99.90;;;;;;4964715;28;20031;-81
2021/10/22 07:49:32;;;;;;;5.50;1.42;;;6.80;99.90;;;;;;4968825;28;20030;-81
2021/10/22 07:51:57;;;;;;;4.47;1.48;;;6.90;99.90;;;;;;5008990;28;20048;-81
2021/10/22 07:54:23;;;;;;;7.53;2.50;;;6.90;99.90;;;;;;5002841;28;20137;-84
2021/10/22 07:56:48;;;;;;;8.70;1.50;;;6.90;99.90;;;;;;4975764;28;20134;-83
2021/10/22 07:59:14;;;;;;;8.48;1.20;;;7.00;99.90;;;;;;4986466;28;20262;-83
2021/10/22 08:01:39;;;;;;;10.88;2.53;;;7.00;99.90;;;;;;4987416;28;20030;-83
2021/10/22 08:04:05;;;;;;;2.63;1.08;;;7.10;99.90;;;;;;4986593;28;20042;-81
2021/10/22 08:06:31;;;;;;;5.60;1.95;;;7.10;99.90;;;;;;4957993;28;20268;-81
2021/10/22 08:08:57;;;;;;;2.08;0.90;;;7.20;99.90;;;;;;5004751;28;20038;-81
2021/10/22 08:11:23;;;;;;;5.97;1.35;;;7.20;99.90;;;;;;4955203;28;20038;-81
2021/10/22 08:13:49;;;;;;;9.02;1.60;;;7.30;99.90;;;;;;4996171;28;20022;-81
2021/10/22 08:16:15;;;;;;;3.67;1.25;;;7.30;99.90;;;;;;4971634;28;20493;-80
2021/10/22 08:18:40;;;;;;;6.40;1.50;;;7.40;99.90;;;;;;4996953;28;20426;-80
2021/10/22 08:21:44;;;;;;;5.43;1.90;;;7.50;99.90;;;;;;5001060;28;20188;-83
2021/10/22 08:23:52;;;;;;;11.07;2.33;;;7.60;99.90;;;;;;5014654;28;20407;-83
2021/10/22 08:26:18;;;;;;;5.22;1.20;;;7.70;99.90;;;;;;4968300;28;20038;-83
2021/10/22 08:28:44;;;;;;;8.98;1.65;;;7.70;99.90;;;;;;4968472;28;20179;-83
2021/10/22 08:31:10;;;;;;;4.80;2.20;;;7.80;99.90;;;;;;4969660;28;20054;-83
2021/10/22 08:33:36;;;;;;;2.90;1.10;;;7.80;99.90;;;;;;4962843;28;20054;-83
2021/10/22 08:36:03;;;;;;;7.38;1.40;;;7.90;99.90;;;;;;4976784;28;20034;-84
2021/10/22 08:38:28;;;;;;;6.93;1.65;;;7.90;99.90;;;;;;4965505;28;20438;-83
2021/10/22 08:40:55;;;;;;;2.95;1.50;;;7.90;99.90;;;;;;4964862;28;20065;-83
2021/10/22 08:43:21;;;;;;;11.98;2.70;;;7.90;99.90;;;;;;4976476;28;20073;-83
2021/10/22 08:45:47;;;;;;;7.57;1.67;;;8.00;99.90;;;;;;4951889;28;20043;-83
2021/10/22 08:48:13;;;;;;;14.77;3.03;;;8.00;99.90;;;;;;4969331;28;20502;-81
2021/10/22 08:50:39;;;;;;;14.40;1.23;;;8.10;99.90;;;;;;4963448;28;20033;-81
2021/10/22 08:53:04;;;;;;;7.93;1.27;;;8.20;99.90;;;;;;4987480;28;20030;-81
2021/10/22 08:55:30;;;;;;;7.63;1.85;;;8.30;99.90;;;;;;4966260;28;20027;-82
2021/10/22 08:57:56;;;;;;;9.63;2.08;;;8.30;99.90;;;;;;4964808;28;20062;-83
2021/10/22 09:00:23;;;;;;;6.82;1.52;;;8.30;99.90;;;;;;4978414;28;20483;-83
2021/10/22 09:02:52;;;;;;;10.93;2.75;;;8.40;99.90;;;;;;4962052;28;20046;-83
2021/10/22 09:05:23;;;;;;;7.38;2.05;;;8.30;99.90;;;;;;4953869;28;20038;-83
2021/10/22 09:07:55;;;;;;;12.10;1.70;;;8.40;99.90;;;;;;4985609;28;20038;-82
2021/10/22 09:10:22;;;;;;;9.88;1.55;;;8.40;99.90;;;;;;4982340;28;20064;-83
2021/10/22 09:13:03;;;;;;;6.43;2.00;;;8.50;99.90;;;;;;5007174;28;20029;-83
2021/10/22 09:15:32;;;;;;;10.32;1.50;;;8.50;99.90;;;;;;4999888;28;20037;-83
2021/10/22 09:18:07;;;;;;;6.63;1.73;;;8.60;99.90;;;;;;4986558;28;20057;-83
2021/10/22 09:20:33;;;;;;;8.18;0.95;;;8.70;99.90;;;;;;4965802;28;20042;-83
2021/10/22 09:23:01;;;;;;;11.02;2.70;;;8.70;99.90;;;;;;4958780;28;20049;-83
2021/10/22 09:25:33;;;;;;;3.60;1.33;;;8.80;99.90;;;;;;4950658;28;20035;-83
2021/10/22 09:28:01;;;;;;;8.10;1.55;;;8.80;99.90;;;;;;4987280;28;20045;-83
2021/10/22 09:30:33;;;;;;;7.07;1.05;;;9.00;99.90;;;;;;4950640;28;20038;-83
2021/10/22 09:33:06;;;;;;;6.43;1.50;;;9.20;99.90;;;;;;4986729;28;20035;-83
2021/10/22 09:35:46;;;;;;;3.97;0.70;;;9.30;99.90;;;;;;4952230;28;20410;-83
2021/10/22 09:38:13;;;;;;;11.55;1.83;;;9.40;99.90;;;;;;4955085;28;20173;-82
2021/10/22 09:40:40;;;;;;;4.47;1.33;;;9.50;99.90;;;;;;4980218;28;20034;-83
2021/10/22 09:43:13;;;;;;;5.10;1.33;;;9.50;99.90;;;;;;4966304;28;20039;-80
2021/10/22 09:45:39;;;;;;;5.78;1.70;;;9.60;99.90;;;;;;4961275;28;20080;-83
2021/10/22 09:48:21;;;;;;;6.50;1.58;;;9.70;99.90;;;;;;4981883;28;20035;-81
2021/10/22 09:50:47;;;;;;;5.57;1.33;;;9.70;99.80;;;;;;4964200;28;20763;-84
2021/10/22 09:53:44;;;;;;;4.40;1.27;;;9.70;99.90;;;;;;4942000;28;20030;-84
2021/10/22 09:56:10;;;;;;;7.53;1.70;;;9.70;99.90;;;;;;4959847;28;20030;-82
2021/10/22 09:58:37;;;;;;;10.23;1.45;;;9.80;99.90;;;;;;4976124;28;20100;-84
2021/10/22 10:01:15;;;;;;;6.20;0.95;;;9.90;99.90;;;;;;4963381;28;20122;-82
2021/10/22 10:03:41;;;;;;;9.38;1.63;;;10.00;99.30;;;;;;5000066;28;20478;-82
2021/10/22 10:06:07;;;;;;;9.75;1.13;;;10.10;99.70;;;;;;4985469;28;20041;-84
2021/10/22 10:08:37;;;;;;;10.43;2.13;;;10.30;99.30;;;;;;5006180;28;20053;-81
2021/10/22 10:11:03;;;;;;;6.15;1.20;;;10.40;99.10;;;;;;4999514;28;20048;-83
2021/10/22 10:13:33;;;;;;;11.60;1.55;;;10.50;99.30;;;;;;5002544;28;20030;-82
2021/10/22 10:16:01;;;;;;;7.38;1.58;;;10.50;99.40;;;;;;4981678;28;20045;-82
2021/10/22 10:18:26;;;;;;;3.88;1.10;;;10.70;99.30;;;;;;4963536;28;20117;-83
2021/10/22 10:20:52;;;;;;;5.72;1.08;;;10.80;98.60;;;;;;5003595;28;20141;-82
2021/10/22 10:23:18;;;;;;;13.15;2.35;;;10.80;98.90;;;;;;4987789;28;20045;-83
2021/10/22 10:25:44;;;;;;;12.35;1.50;;;10.80;98.80;;;;;;4984435;28;20068;-82
2021/10/22 10:28:09;;;;;;;5.68;1.13;;;10.90;98.70;;;;;;4989213;28;20153;-83
2021/10/22 10:30:39;;;;;;;5.05;1.10;;;11.00;98.70;;;;;;5003314;28;20060;-83
2021/10/22 10:33:06;;;;;;;4.57;0.90;;;11.20;98.10;;;;;;4998564;28;20034;-82
2021/10/22 10:35:38;;;;;;;5.07;1.50;;;11.40;97.20;;;;;;5003532;28;20037;-83
2021/10/22 10:38:04;;;;;;;4.40;1.08;;;11.50;97.80;;;;;;5002094;28;20038;-83
2021/10/22 10:40:30;;;;;;;3.10;1.38;;;11.40;97.50;;;;;;5001963;28;20036;-82
2021/10/22 10:43:00;;;;;;;6.40;1.10;;;11.40;98.20;;;;;;5002820;28;20030;-82
2021/10/22 10:45:26;;;;;;;12.77;1.95;;;11.40;98.10;;;;;;5004469;28;20473;-82
2021/10/22 10:47:55;;;;;;;1.85;0.93;;;11.60;97.40;;;;;;5013757;28;20066;-83
2021/10/22 10:50:24;;;;;;;6.72;0.95;;;11.60;97.50;;;;;;5005738;28;20130;-83
2021/10/22 10:52:56;;;;;;;10.23;1.25;;;11.60;97.80;;;;;;4977605;28;20033;-82
2021/10/22 10:55:31;;;;;;;2.47;0.63;;;11.60;97.90;;;;;;4953383;28;20526;-83
2021/10/22 10:58:09;;;;;;;5.15;0.95;;;11.70;97.50;;;;;;5013962;28;20431;-83
2021/10/22 11:00:42;;;;;;;4.07;1.25;;;11.80;97.30;;;;;;5001263;28;20080;-83
2021/10/22 11:03:15;;;;;;;2.72;0.50;;;11.70;97.30;;;;;;5000227;28;20033;-83
2021/10/22 11:05:48;;;;;;;5.95;1.27;;;11.70;97.20;;;;;;4997975;28;20042;-83
2021/10/22 11:08:38;;;;;;;7.20;1.80;;;11.70;96.80;;;;;;4990133;28;20031;-83
2021/10/22 11:11:11;;;;;;;1.67;0.70;;;11.70;96.40;;;;;;4983993;28;20045;-83
2021/10/22 11:13:45;;;;;;;7.53;1.13;;;11.70;97.20;;;;;;5017229;28;20054;-83
2021/10/22 11:16:20;;;;;;;4.80;0.73;;;11.70;96.80;;;;;;4988191;28;20034;-83
2021/10/22 11:19:03;;;;;;;1.38;0.60;;;11.90;96.80;;;;;;5013922;28;20030;-84
2021/10/22 11:21:30;;;;;;;6.13;0.98;;;12.00;96.60;;;;;;4973325;28;20034;-83
2021/10/22 11:23:57;;;;;;;7.88;1.75;;;12.10;96.20;;;;;;4969254;28;20031;-82
2021/10/22 11:26:23;;;;;;;6.85;1.50;;;12.10;95.90;;;;;;4971535;28;20042;-82
2021/10/22 11:28:49;;;;;;;6.07;1.40;;;12.10;96.40;;;;;;4966450;28;20031;-82
2021/10/22 11:31:39;;;;;;;12.40;1.80;;;12.20;97.60;;;;;;4990948;28;20399;-82
2021/10/22 11:34:06;;;;;;;7.47;1.15;;;12.30;96.00;;;;;;4985580;28;20092;-82
2021/10/22 11:36:32;;;;;;;1.98;0.65;;;12.40;95.70;;;;;;4984150;28;20058;-82
2021/10/22 11:38:58;;;;;;;7.40;1.42;;;12.20;95.80;;;;;;4969223;28;20117;-82
2021/10/22 11:41:25;;;;;;;4.38;1.30;;;12.30;96.00;;;;;;4992239;28;20037;-82
2021/10/22 11:44:06;;;;;;;4.28;1.15;;;12.20;96.00;;;;;;4979120;28;20022;-82
2021/10/22 11:46:46;;;;;;;3.38;0.98;;;12.20;96.50;;;;;;4959693;28;20109;-82
2021/10/22 11:49:30;;;;;;;7.10;1.23;;;12.10;96.00;;;;;;5000236;28;20038;-82
2021/10/22 11:51:57;;;;;;;7.38;2.47;;;12.10;96.10;;;;;;5009503;28;20065;-82
2021/10/22 11:54:44;;;;;;;12.70;1.90;;;12.10;96.00;;;;;;4983556;28;20088;-82
2021/10/22 11:57:13;;;;;;;;;;;12.00;96.00;;;;;;4971830;28;20027;-82
2021/10/22 11:59:50;;;;;;;4.70;1.50;;;12.00;96.20;;;;;;4964170;28;20433;-82
2021/10/22 12:02:19;;;;;;;2.30;0.68;;;11.90;95.80;;;;;;4982092;28;20034;-82
2021/10/22 12:04:46;;;;;;;2.67;0.50;;;11.90;97.80;;;;;;4951614;28;20122;-82
2021/10/22 12:07:12;;;;;;;5.82;1.40;;;11.80;96.30;;;;;;4954969;28;20141;-82
2021/10/22 12:09:40;;;;;;;2.17;1.35;;;11.70;96.00;;;;;;4955086;28;20126;-82
2021/10/22 12:12:10;;;;;;;10.95;1.23;;;11.70;96.00;;;;;;4956434;28;20162;-83
2021/10/22 12:14:38;;;;;;;5.28;1.02;;;11.70;96.70;;;;;;4985180;28;20033;-83
2021/10/22 12:17:09;;;;;;;2.72;1.08;;;11.70;96.70;;;;;;4974964;28;20510;-83
2021/10/22 12:19:34;;;;;;;10.32;1.75;;;11.60;97.10;;;;;;4951178;28;20034;-83
2021/10/22 12:22:01;;;;;;;8.55;1.70;;;11.70;96.70;;;;;;4951241;28;20058;-82
2021/10/22 12:24:37;;;;;;;7.50;1.25;;;11.60;96.70;;;;;;4955113;28;20057;-82
2021/10/22 12:27:06;;;;;;;5.75;1.35;;;11.60;96.80;;;;;;5000313;28;20053;-83
2021/10/22 12:29:54;;;;;;;4.65;1.45;;;11.70;96.30;;;;;;4994981;28;20163;-83
2021/10/22 12:32:38;;;;;;;10.23;1.05;;;11.70;97.60;;;;;;4986762;28;20044;-82
2021/10/22 12:35:05;;;;;;;5.75;1.35;;;11.70;97.00;;;;;;5000857;28;20039;-83
2021/10/22 12:37:41;;;;;;;3.28;1.58;;;11.80;96.50;;;;;;4964542;28;20039;-83
2021/10/22 12:40:20;;;;;;;;;;;11.80;96.40;;;;;;4983814;28;20365;-82
2021/10/22 12:42:46;;;;;;;9.88;2.08;;;11.90;97.00;;;;;;5000257;28;19910;-83
2021/10/22 12:45:29;;;;;;;11.75;1.85;;;12.00;97.90;;;;;;4965497;28;20042;-83
2021/10/22 12:48:06;;;;;;;3.88;1.10;;;11.90;96.70;;;;;;4973181;28;20100;-82
2021/10/22 12:50:34;;;;;;;2.40;0.93;;;11.90;97.20;;;;;;5005241;28;20061;-82
2021/10/22 12:53:01;;;;;;;11.43;1.65;;;12.10;96.60;;;;;;4986506;28;20092;-83
2021/10/22 12:55:34;;;;;;;3.78;1.38;;;12.20;97.40;;;;;;4984884;28;20045;-83
2021/10/22 12:58:16;;;;;;;2.88;1.55;;;12.30;96.10;;;;;;4976209;28;20034;-83
2021/10/22 13:00:43;;;;;;;10.20;2.28;;;12.40;96.20;;;;;;4984489;28;20037;-82
2021/10/22 13:03:08;;;;;;;7.05;1.88;;;12.40;96.30;;;;;;4998584;28;20034;-82